sensor_id;sensor_type;location;lat;lon;timestamp;P1;durP1;ratioP1;P2;durP2;ratioP2
46000;SDS011;72226;48.272;11.180;2024-03-22T00:02:18;13.77;;;10.43;;
46000;SDS011;72226;48.272;11.180;2024-03-22T00:04:43;15.30;;;11.25;;
46000;SDS011;72226;48.272;11.180;2024-03-22T00:07:08;14.90;;;12.65;;
46000;SDS011;72226;48.272;11.180;2024-03-22T00:09:33;23.67;;;13.68;;
46000;SDS011;72226;48.272;11.180;2024-03-22T00:11:59;19.10;;;12.38;;
46000;SDS011;72226;48.272;11.180;2024-03-22T00:14:24;16.60;;;12.18;;
46000;SDS011;72226;48.272;11.180;2024-03-22T00:16:49;16.50;;;12.45;;
46000;SDS011;72226;48.272;11.180;2024-03-22T00:19:14;17.73;;;13.50;;
46000;SDS011;72226;48.272;11.180;2024-03-22T00:21:40;19.48;;;13.88;;
46000;SDS011;72226;48.272;11.180;2024-03-22T00:24:05;18.73;;;13.18;;
46000;SDS011;72226;48.272;11.180;2024-03-22T00:26:30;17.20;;;13.25;;
46000;SDS011;72226;48.272;11.180;2024-03-22T00:28:55;20.80;;;15.13;;
46000;SDS011;72226;48.272;11.180;2024-03-22T00:31:23;19.45;;;15.70;;
46000;SDS011;72226;48.272;11.180;2024-03-22T00:33:48;20.40;;;14.93;;
46000;SDS011;72226;48.272;11.180;2024-03-22T00:36:13;23.20;;;16.55;;
46000;SDS011;72226;48.272;11.180;2024-03-22T00:38:39;20.92;;;14.35;;
46000;SDS011;72226;48.272;11.180;2024-03-22T00:41:04;22.58;;;14.63;;
46000;SDS011;72226;48.272;11.180;2024-03-22T00:43:29;20.20;;;16.13;;
46000;SDS011;72226;48.272;11.180;2024-03-22T00:45:54;19.08;;;15.70;;
46000;SDS011;72226;48.272;11.180;2024-03-22T00:48:19;20.73;;;15.73;;
46000;SDS011;72226;48.272;11.180;2024-03-22T00:50:45;16.38;;;14.70;;
46000;SDS011;72226;48.272;11.180;2024-03-22T00:53:10;23.65;;;15.75;;
46000;SDS011;72226;48.272;11.180;2024-03-22T00:55:35;19.30;;;15.65;;
46000;SDS011;72226;48.272;11.180;2024-03-22T00:58:01;22.73;;;15.18;;
46000;SDS011;72226;48.272;11.180;2024-03-22T01:00:26;18.65;;;14.23;;
46000;SDS011;72226;48.272;11.180;2024-03-22T01:02:51;19.02;;;12.82;;
46000;SDS011;72226;48.272;11.180;2024-03-22T01:05:16;20.48;;;14.52;;
46000;SDS011;72226;48.272;11.180;2024-03-22T01:07:42;15.82;;;13.73;;
46000;SDS011;72226;48.272;11.180;2024-03-22T01:10:07;18.42;;;15.48;;
46000;SDS011;72226;48.272;11.180;2024-03-22T01:12:32;18.27;;;14.07;;
46000;SDS011;72226;48.272;11.180;2024-03-22T01:14:58;17.77;;;14.18;;
46000;SDS011;72226;48.272;11.180;2024-03-22T01:17:23;23.85;;;15.73;;
46000;SDS011;72226;48.272;11.180;2024-03-22T01:19:48;23.10;;;16.00;;
46000;SDS011;72226;48.272;11.180;2024-03-22T01:22:13;19.42;;;14.55;;
46000;SDS011;72226;48.272;11.180;2024-03-22T01:24:39;22.27;;;15.43;;
46000;SDS011;72226;48.272;11.180;2024-03-22T01:27:04;21.27;;;17.08;;
46000;SDS011;72226;48.272;11.180;2024-03-22T01:29:30;23.00;;;16.58;;
46000;SDS011;72226;48.272;11.180;2024-03-22T01:31:57;27.48;;;17.75;;
46000;SDS011;72226;48.272;11.180;2024-03-22T01:34:22;20.33;;;15.50;;
46000;SDS011;72226;48.272;11.180;2024-03-22T01:36:47;22.30;;;16.15;;
46000;SDS011;72226;48.272;11.180;2024-03-22T01:39:13;20.55;;;17.33;;
46000;SDS011;72226;48.272;11.180;2024-03-22T01:41:39;19.00;;;15.07;;
46000;SDS011;72226;48.272;11.180;2024-03-22T01:44:04;27.83;;;17.00;;
46000;SDS011;72226;48.272;11.180;2024-03-22T01:46:29;21.40;;;15.68;;
46000;SDS011;72226;48.272;11.180;2024-03-22T01:48:55;20.50;;;15.05;;
46000;SDS011;72226;48.272;11.180;2024-03-22T01:51:20;19.38;;;15.32;;
46000;SDS011;72226;48.272;11.180;2024-03-22T01:53:45;22.77;;;16.90;;
46000;SDS011;72226;48.272;11.180;2024-03-22T01:56:11;19.98;;;15.27;;
46000;SDS011;72226;48.272;11.180;2024-03-22T01:58:36;20.65;;;16.10;;
46000;SDS011;72226;48.272;11.180;2024-03-22T02:01:01;23.73;;;16.75;;
46000;SDS011;72226;48.272;11.180;2024-03-22T02:03:27;22.15;;;17.27;;
46000;SDS011;72226;48.272;11.180;2024-03-22T02:05:52;21.05;;;16.88;;
46000;SDS011;72226;48.272;11.180;2024-03-22T02:08:17;18.20;;;14.68;;
46000;SDS011;72226;48.272;11.180;2024-03-22T02:10:43;19.42;;;15.00;;
46000;SDS011;72226;48.272;11.180;2024-03-22T02:13:08;19.92;;;14.68;;
46000;SDS011;72226;48.272;11.180;2024-03-22T02:15:33;20.63;;;15.63;;
46000;SDS011;72226;48.272;11.180;2024-03-22T02:17:58;19.50;;;13.80;;
46000;SDS011;72226;48.272;11.180;2024-03-22T02:20:24;19.95;;;14.40;;
46000;SDS011;72226;48.272;11.180;2024-03-22T02:22:49;18.20;;;13.90;;
46000;SDS011;72226;48.272;11.180;2024-03-22T02:25:14;19.50;;;15.95;;
46000;SDS011;72226;48.272;11.180;2024-03-22T02:27:39;19.48;;;14.20;;
46000;SDS011;72226;48.272;11.180;2024-03-22T02:30:05;23.23;;;14.85;;
46000;SDS011;72226;48.272;11.180;2024-03-22T02:32:30;21.52;;;15.50;;
46000;SDS011;72226;48.272;11.180;2024-03-22T02:34:55;18.63;;;13.30;;
46000;SDS011;72226;48.272;11.180;2024-03-22T02:37:21;19.90;;;14.90;;
46000;SDS011;72226;48.272;11.180;2024-03-22T02:39:46;18.13;;;13.55;;
46000;SDS011;72226;48.272;11.180;2024-03-22T02:42:11;18.40;;;13.63;;
46000;SDS011;72226;48.272;11.180;2024-03-22T02:44:37;17.63;;;12.68;;
46000;SDS011;72226;48.272;11.180;2024-03-22T02:47:07;18.52;;;12.48;;
46000;SDS011;72226;48.272;11.180;2024-03-22T02:49:32;17.17;;;13.88;;
46000;SDS011;72226;48.272;11.180;2024-03-22T02:51:57;19.00;;;13.32;;
46000;SDS011;72226;48.272;11.180;2024-03-22T02:54:23;20.00;;;13.25;;
46000;SDS011;72226;48.272;11.180;2024-03-22T02:56:48;15.98;;;11.80;;
46000;SDS011;72226;48.272;11.180;2024-03-22T02:59:13;13.68;;;10.98;;
46000;SDS011;72226;48.272;11.180;2024-03-22T03:01:38;15.68;;;12.35;;
46000;SDS011;72226;48.272;11.180;2024-03-22T03:04:04;20.40;;;14.13;;
46000;SDS011;72226;48.272;11.180;2024-03-22T03:06:29;22.23;;;13.38;;
46000;SDS011;72226;48.272;11.180;2024-03-22T03:08:54;16.75;;;12.27;;
46000;SDS011;72226;48.272;11.180;2024-03-22T03:11:19;14.13;;;12.27;;
46000;SDS011;72226;48.272;11.180;2024-03-22T03:13:44;17.45;;;11.88;;
46000;SDS011;72226;48.272;11.180;2024-03-22T03:16:10;25.35;;;17.27;;
46000;SDS011;72226;48.272;11.180;2024-03-22T03:18:35;27.00;;;16.58;;
46000;SDS011;72226;48.272;11.180;2024-03-22T03:21:00;20.25;;;15.30;;
46000;SDS011;72226;48.272;11.180;2024-03-22T03:23:26;19.13;;;15.20;;
46000;SDS011;72226;48.272;11.180;2024-03-22T03:25:51;25.10;;;15.50;;
46000;SDS011;72226;48.272;11.180;2024-03-22T03:28:16;25.98;;;15.90;;
46000;SDS011;72226;48.272;11.180;2024-03-22T03:30:41;20.73;;;16.05;;
46000;SDS011;72226;48.272;11.180;2024-03-22T03:33:07;20.77;;;16.60;;
46000;SDS011;72226;48.272;11.180;2024-03-22T03:35:32;22.25;;;16.08;;
46000;SDS011;72226;48.272;11.180;2024-03-22T03:37:57;20.67;;;15.20;;
46000;SDS011;72226;48.272;11.180;2024-03-22T03:40:22;25.83;;;20.42;;
46000;SDS011;72226;48.272;11.180;2024-03-22T03:42:50;24.10;;;18.55;;
46000;SDS011;72226;48.272;11.180;2024-03-22T03:45:15;24.17;;;17.60;;
46000;SDS011;72226;48.272;11.180;2024-03-22T03:47:40;27.90;;;18.95;;
46000;SDS011;72226;48.272;11.180;2024-03-22T03:50:05;22.42;;;16.98;;
46000;SDS011;72226;48.272;11.180;2024-03-22T03:52:31;26.73;;;18.42;;
46000;SDS011;72226;48.272;11.180;2024-03-22T03:54:56;26.17;;;18.90;;
46000;SDS011;72226;48.272;11.180;2024-03-22T03:57:21;23.02;;;16.48;;
46000;SDS011;72226;48.272;11.180;2024-03-22T03:59:46;22.92;;;16.15;;
46000;SDS011;72226;48.272;11.180;2024-03-22T04:02:11;26.15;;;18.13;;
46000;SDS011;72226;48.272;11.180;2024-03-22T04:04:37;19.05;;;15.70;;
46000;SDS011;72226;48.272;11.180;2024-03-22T04:07:02;24.50;;;16.40;;
46000;SDS011;72226;48.272;11.180;2024-03-22T04:09:27;24.42;;;17.40;;
46000;SDS011;72226;48.272;11.180;2024-03-22T04:11:53;21.00;;;16.25;;
46000;SDS011;72226;48.272;11.180;2024-03-22T04:14:18;22.35;;;15.38;;
46000;SDS011;72226;48.272;11.180;2024-03-22T04:16:43;22.35;;;16.23;;
46000;SDS011;72226;48.272;11.180;2024-03-22T04:19:08;18.35;;;14.10;;
46000;SDS011;72226;48.272;11.180;2024-03-22T04:21:33;17.65;;;13.95;;
46000;SDS011;72226;48.272;11.180;2024-03-22T04:23:59;20.10;;;16.30;;
46000;SDS011;72226;48.272;11.180;2024-03-22T04:26:24;18.13;;;13.70;;
46000;SDS011;72226;48.272;11.180;2024-03-22T04:28:49;15.45;;;12.05;;
46000;SDS011;72226;48.272;11.180;2024-03-22T04:31:14;13.82;;;10.40;;
46000;SDS011;72226;48.272;11.180;2024-03-22T04:33:40;14.05;;;11.45;;
46000;SDS011;72226;48.272;11.180;2024-03-22T04:36:06;13.73;;;10.68;;
46000;SDS011;72226;48.272;11.180;2024-03-22T04:38:31;19.80;;;12.15;;
46000;SDS011;72226;48.272;11.180;2024-03-22T04:40:56;14.65;;;10.48;;
46000;SDS011;72226;48.272;11.180;2024-03-22T04:43:25;15.35;;;11.30;;
46000;SDS011;72226;48.272;11.180;2024-03-22T04:45:50;16.63;;;11.70;;
46000;SDS011;72226;48.272;11.180;2024-03-22T04:48:17;17.67;;;12.13;;
46000;SDS011;72226;48.272;11.180;2024-03-22T04:50:42;14.52;;;12.00;;
46000;SDS011;72226;48.272;11.180;2024-03-22T04:53:07;17.42;;;12.52;;
46000;SDS011;72226;48.272;11.180;2024-03-22T04:55:33;18.17;;;12.52;;
46000;SDS011;72226;48.272;11.180;2024-03-22T04:57:58;20.08;;;14.95;;
46000;SDS011;72226;48.272;11.180;2024-03-22T05:00:23;18.42;;;12.57;;
46000;SDS011;72226;48.272;11.180;2024-03-22T05:02:50;21.02;;;15.23;;
46000;SDS011;72226;48.272;11.180;2024-03-22T05:05:15;17.92;;;13.07;;
46000;SDS011;72226;48.272;11.180;2024-03-22T05:07:40;18.38;;;12.63;;
46000;SDS011;72226;48.272;11.180;2024-03-22T05:10:06;19.15;;;14.05;;
46000;SDS011;72226;48.272;11.180;2024-03-22T05:12:31;18.27;;;14.15;;
46000;SDS011;72226;48.272;11.180;2024-03-22T05:14:56;20.02;;;14.15;;
46000;SDS011;72226;48.272;11.180;2024-03-22T05:17:21;15.90;;;12.30;;
46000;SDS011;72226;48.272;11.180;2024-03-22T05:19:47;20.90;;;14.55;;
46000;SDS011;72226;48.272;11.180;2024-03-22T05:22:12;15.43;;;11.93;;
46000;SDS011;72226;48.272;11.180;2024-03-22T05:24:37;14.27;;;11.38;;
46000;SDS011;72226;48.272;11.180;2024-03-22T05:27:03;19.25;;;12.95;;
46000;SDS011;72226;48.272;11.180;2024-03-22T05:29:28;17.58;;;12.90;;
46000;SDS011;72226;48.272;11.180;2024-03-22T05:31:53;17.05;;;12.35;;
46000;SDS011;72226;48.272;11.180;2024-03-22T05:34:18;18.23;;;12.63;;
46000;SDS011;72226;48.272;11.180;2024-03-22T05:36:45;13.93;;;12.05;;
46000;SDS011;72226;48.272;11.180;2024-03-22T05:39:10;18.67;;;12.38;;
46000;SDS011;72226;48.272;11.180;2024-03-22T05:41:38;20.13;;;12.82;;
46000;SDS011;72226;48.272;11.180;2024-03-22T05:44:03;16.58;;;12.70;;
46000;SDS011;72226;48.272;11.180;2024-03-22T05:46:29;15.13;;;12.50;;
46000;SDS011;72226;48.272;11.180;2024-03-22T05:48:55;20.63;;;13.40;;
46000;SDS011;72226;48.272;11.180;2024-03-22T05:51:20;14.82;;;12.07;;
46000;SDS011;72226;48.272;11.180;2024-03-22T05:53:46;17.20;;;13.50;;
46000;SDS011;72226;48.272;11.180;2024-03-22T05:56:11;17.40;;;13.40;;
46000;SDS011;72226;48.272;11.180;2024-03-22T05:58:36;18.65;;;13.43;;
46000;SDS011;72226;48.272;11.180;2024-03-22T06:01:02;19.42;;;13.77;;
46000;SDS011;72226;48.272;11.180;2024-03-22T06:03:28;21.10;;;15.27;;
46000;SDS011;72226;48.272;11.180;2024-03-22T06:05:53;18.05;;;11.73;;
46000;SDS011;72226;48.272;11.180;2024-03-22T06:08:21;14.98;;;12.65;;
46000;SDS011;72226;48.272;11.180;2024-03-22T06:10:46;16.45;;;11.05;;
46000;SDS011;72226;48.272;11.180;2024-03-22T06:13:12;18.77;;;13.50;;
46000;SDS011;72226;48.272;11.180;2024-03-22T06:15:37;17.02;;;13.27;;
46000;SDS011;72226;48.272;11.180;2024-03-22T06:18:02;13.68;;;11.45;;
46000;SDS011;72226;48.272;11.180;2024-03-22T06:20:27;18.80;;;11.27;;
46000;SDS011;72226;48.272;11.180;2024-03-22T06:22:53;20.17;;;13.57;;
46000;SDS011;72226;48.272;11.180;2024-03-22T06:25:18;20.52;;;14.07;;
46000;SDS011;72226;48.272;11.180;2024-03-22T06:27:43;19.73;;;14.27;;
46000;SDS011;72226;48.272;11.180;2024-03-22T06:30:08;20.40;;;14.60;;
46000;SDS011;72226;48.272;11.180;2024-03-22T06:32:34;20.77;;;14.18;;
46000;SDS011;72226;48.272;11.180;2024-03-22T06:34:59;19.95;;;13.57;;
46000;SDS011;72226;48.272;11.180;2024-03-22T06:37:24;16.92;;;11.98;;
46000;SDS011;72226;48.272;11.180;2024-03-22T06:39:49;14.27;;;12.48;;
46000;SDS011;72226;48.272;11.180;2024-03-22T06:42:15;23.88;;;13.18;;
46000;SDS011;72226;48.272;11.180;2024-03-22T06:44:40;17.30;;;13.35;;
46000;SDS011;72226;48.272;11.180;2024-03-22T06:47:05;20.70;;;13.35;;
46000;SDS011;72226;48.272;11.180;2024-03-22T06:49:30;16.10;;;13.45;;
46000;SDS011;72226;48.272;11.180;2024-03-22T06:51:56;17.02;;;13.25;;
46000;SDS011;72226;48.272;11.180;2024-03-22T06:54:21;15.65;;;13.65;;
46000;SDS011;72226;48.272;11.180;2024-03-22T06:56:47;19.17;;;12.52;;
46000;SDS011;72226;48.272;11.180;2024-03-22T06:59:12;18.83;;;12.05;;
46000;SDS011;72226;48.272;11.180;2024-03-22T07:01:37;19.30;;;13.32;;
46000;SDS011;72226;48.272;11.180;2024-03-22T07:04:02;16.70;;;11.63;;
46000;SDS011;72226;48.272;11.180;2024-03-22T07:06:28;21.15;;;13.35;;
46000;SDS011;72226;48.272;11.180;2024-03-22T07:08:53;16.25;;;12.30;;
46000;SDS011;72226;48.272;11.180;2024-03-22T07:11:18;16.60;;;11.90;;
46000;SDS011;72226;48.272;11.180;2024-03-22T07:13:43;17.52;;;12.65;;
46000;SDS011;72226;48.272;11.180;2024-03-22T07:16:08;13.77;;;12.25;;
46000;SDS011;72226;48.272;11.180;2024-03-22T07:18:34;16.38;;;12.77;;
46000;SDS011;72226;48.272;11.180;2024-03-22T07:20:59;16.20;;;11.98;;
46000;SDS011;72226;48.272;11.180;2024-03-22T07:23:26;12.70;;;11.20;;
46000;SDS011;72226;48.272;11.180;2024-03-22T07:25:51;18.83;;;11.52;;
46000;SDS011;72226;48.272;11.180;2024-03-22T07:28:17;15.82;;;12.35;;
46000;SDS011;72226;48.272;11.180;2024-03-22T07:30:42;12.52;;;10.93;;
46000;SDS011;72226;48.272;11.180;2024-03-22T07:33:07;14.80;;;11.93;;
46000;SDS011;72226;48.272;11.180;2024-03-22T07:35:34;13.27;;;11.60;;
46000;SDS011;72226;48.272;11.180;2024-03-22T07:37:59;15.57;;;10.52;;
46000;SDS011;72226;48.272;11.180;2024-03-22T07:40:24;14.98;;;10.35;;
46000;SDS011;72226;48.272;11.180;2024-03-22T07:42:50;12.52;;;9.20;;
46000;SDS011;72226;48.272;11.180;2024-03-22T07:45:15;10.68;;;8.27;;
46000;SDS011;72226;48.272;11.180;2024-03-22T07:47:40;12.43;;;8.77;;
46000;SDS011;72226;48.272;11.180;2024-03-22T07:50:07;8.95;;;7.13;;
46000;SDS011;72226;48.272;11.180;2024-03-22T07:52:33;13.80;;;7.22;;
46000;SDS011;72226;48.272;11.180;2024-03-22T07:54:59;10.52;;;7.95;;
46000;SDS011;72226;48.272;11.180;2024-03-22T07:57:27;7.75;;;5.53;;
46000;SDS011;72226;48.272;11.180;2024-03-22T07:59:52;8.10;;;7.30;;
46000;SDS011;72226;48.272;11.180;2024-03-22T08:02:17;7.72;;;6.50;;
46000;SDS011;72226;48.272;11.180;2024-03-22T08:04:42;9.07;;;7.07;;
46000;SDS011;72226;48.272;11.180;2024-03-22T08:07:07;9.40;;;7.32;;
46000;SDS011;72226;48.272;11.180;2024-03-22T08:09:33;10.27;;;7.18;;
46000;SDS011;72226;48.272;11.180;2024-03-22T08:11:58;10.35;;;7.60;;
46000;SDS011;72226;48.272;11.180;2024-03-22T08:14:24;8.90;;;7.53;;
46000;SDS011;72226;48.272;11.180;2024-03-22T08:16:49;8.82;;;6.05;;
46000;SDS011;72226;48.272;11.180;2024-03-22T08:19:14;8.45;;;6.95;;
46000;SDS011;72226;48.272;11.180;2024-03-22T08:21:39;12.63;;;7.70;;
46000;SDS011;72226;48.272;11.180;2024-03-22T08:24:05;9.80;;;7.20;;
46000;SDS011;72226;48.272;11.180;2024-03-22T08:26:30;8.95;;;7.05;;
46000;SDS011;72226;48.272;11.180;2024-03-22T08:28:55;9.88;;;8.63;;
46000;SDS011;72226;48.272;11.180;2024-03-22T08:31:20;13.05;;;7.35;;
46000;SDS011;72226;48.272;11.180;2024-03-22T08:33:50;7.97;;;6.95;;
46000;SDS011;72226;48.272;11.180;2024-03-22T08:36:15;9.02;;;6.55;;
46000;SDS011;72226;48.272;11.180;2024-03-22T08:38:41;9.27;;;8.32;;
46000;SDS011;72226;48.272;11.180;2024-03-22T08:41:06;10.50;;;6.05;;
46000;SDS011;72226;48.272;11.180;2024-03-22T08:43:31;7.82;;;7.03;;
46000;SDS011;72226;48.272;11.180;2024-03-22T08:45:56;11.55;;;6.88;;
46000;SDS011;72226;48.272;11.180;2024-03-22T08:48:22;10.27;;;8.00;;
46000;SDS011;72226;48.272;11.180;2024-03-22T08:50:48;11.85;;;8.90;;
46000;SDS011;72226;48.272;11.180;2024-03-22T08:53:13;10.90;;;7.32;;
46000;SDS011;72226;48.272;11.180;2024-03-22T08:55:38;9.43;;;7.10;;
46000;SDS011;72226;48.272;11.180;2024-03-22T08:58:09;8.48;;;7.15;;
46000;SDS011;72226;48.272;11.180;2024-03-22T09:00:34;8.52;;;7.53;;
46000;SDS011;72226;48.272;11.180;2024-03-22T09:03:00;9.63;;;8.15;;
46000;SDS011;72226;48.272;11.180;2024-03-22T09:05:25;8.63;;;7.82;;
46000;SDS011;72226;48.272;11.180;2024-03-22T09:07:50;8.75;;;7.72;;
46000;SDS011;72226;48.272;11.180;2024-03-22T09:10:18;12.63;;;7.88;;
46000;SDS011;72226;48.272;11.180;2024-03-22T09:12:43;9.05;;;6.75;;
46000;SDS011;72226;48.272;11.180;2024-03-22T09:15:08;7.70;;;6.97;;
46000;SDS011;72226;48.272;11.180;2024-03-22T09:17:33;13.77;;;7.70;;
46000;SDS011;72226;48.272;11.180;2024-03-22T09:19:59;8.73;;;7.43;;
46000;SDS011;72226;48.272;11.180;2024-03-22T09:22:24;7.97;;;7.18;;
46000;SDS011;72226;48.272;11.180;2024-03-22T09:24:49;9.75;;;6.53;;
46000;SDS011;72226;48.272;11.180;2024-03-22T09:27:15;9.27;;;7.00;;
46000;SDS011;72226;48.272;11.180;2024-03-22T09:29:40;14.35;;;6.43;;
46000;SDS011;72226;48.272;11.180;2024-03-22T09:32:05;10.13;;;7.05;;
46000;SDS011;72226;48.272;11.180;2024-03-22T09:34:30;12.05;;;8.25;;
46000;SDS011;72226;48.272;11.180;2024-03-22T09:36:56;6.82;;;6.18;;
46000;SDS011;72226;48.272;11.180;2024-03-22T09:39:22;8.32;;;6.47;;
46000;SDS011;72226;48.272;11.180;2024-03-22T09:41:47;10.77;;;6.82;;
46000;SDS011;72226;48.272;11.180;2024-03-22T09:44:13;11.20;;;7.57;;
46000;SDS011;72226;48.272;11.180;2024-03-22T09:46:40;15.23;;;8.77;;
46000;SDS011;72226;48.272;11.180;2024-03-22T09:49:05;10.15;;;6.78;;
46000;SDS011;72226;48.272;11.180;2024-03-22T09:51:31;8.55;;;7.55;;
46000;SDS011;72226;48.272;11.180;2024-03-22T09:53:56;9.05;;;7.07;;
46000;SDS011;72226;48.272;11.180;2024-03-22T09:56:22;9.50;;;7.35;;
46000;SDS011;72226;48.272;11.180;2024-03-22T09:58:49;10.05;;;7.18;;
46000;SDS011;72226;48.272;11.180;2024-03-22T10:01:15;7.95;;;7.10;;
46000;SDS011;72226;48.272;11.180;2024-03-22T10:03:40;9.20;;;6.95;;
46000;SDS011;72226;48.272;11.180;2024-03-22T10:06:06;6.95;;;5.22;;
46000;SDS011;72226;48.272;11.180;2024-03-22T10:08:31;13.10;;;7.00;;
46000;SDS011;72226;48.272;11.180;2024-03-22T10:10:57;8.13;;;6.55;;
46000;SDS011;72226;48.272;11.180;2024-03-22T10:13:22;11.57;;;6.35;;
46000;SDS011;72226;48.272;11.180;2024-03-22T10:15:47;7.22;;;6.18;;
46000;SDS011;72226;48.272;11.180;2024-03-22T10:18:14;9.80;;;5.78;;
46000;SDS011;72226;48.272;11.180;2024-03-22T10:20:40;7.82;;;6.50;;
46000;SDS011;72226;48.272;11.180;2024-03-22T10:23:05;9.18;;;6.95;;
46000;SDS011;72226;48.272;11.180;2024-03-22T10:25:32;8.07;;;6.60;;
46000;SDS011;72226;48.272;11.180;2024-03-22T10:27:58;12.93;;;6.68;;
46000;SDS011;72226;48.272;11.180;2024-03-22T10:30:24;6.90;;;6.13;;
46000;SDS011;72226;48.272;11.180;2024-03-22T10:32:50;8.27;;;6.15;;
46000;SDS011;72226;48.272;11.180;2024-03-22T10:35:15;7.60;;;6.18;;
46000;SDS011;72226;48.272;11.180;2024-03-22T10:37:41;9.45;;;6.93;;
46000;SDS011;72226;48.272;11.180;2024-03-22T10:40:07;8.75;;;6.30;;
46000;SDS011;72226;48.272;11.180;2024-03-22T10:42:33;7.95;;;6.25;;
46000;SDS011;72226;48.272;11.180;2024-03-22T10:44:58;7.22;;;5.60;;
46000;SDS011;72226;48.272;11.180;2024-03-22T10:47:24;8.05;;;5.80;;
46000;SDS011;72226;48.272;11.180;2024-03-22T10:49:50;8.90;;;7.97;;
46000;SDS011;72226;48.272;11.180;2024-03-22T10:52:18;7.90;;;5.72;;
46000;SDS011;72226;48.272;11.180;2024-03-22T10:54:44;11.07;;;6.47;;
46000;SDS011;72226;48.272;11.180;2024-03-22T10:57:11;9.82;;;6.57;;
46000;SDS011;72226;48.272;11.180;2024-03-22T10:59:37;6.63;;;5.90;;
46000;SDS011;72226;48.272;11.180;2024-03-22T11:02:03;6.80;;;6.10;;
46000;SDS011;72226;48.272;11.180;2024-03-22T11:04:29;7.25;;;5.50;;
46000;SDS011;72226;48.272;11.180;2024-03-22T11:06:56;6.95;;;5.43;;
46000;SDS011;72226;48.272;11.180;2024-03-22T11:09:22;7.25;;;6.55;;
46000;SDS011;72226;48.272;11.180;2024-03-22T11:11:48;6.85;;;6.03;;
46000;SDS011;72226;48.272;11.180;2024-03-22T11:14:13;7.85;;;7.10;;
46000;SDS011;72226;48.272;11.180;2024-03-22T11:16:38;11.38;;;6.63;;
46000;SDS011;72226;48.272;11.180;2024-03-22T11:19:07;13.13;;;5.90;;
46000;SDS011;72226;48.272;11.180;2024-03-22T11:21:33;7.82;;;6.05;;
46000;SDS011;72226;48.272;11.180;2024-03-22T11:24:01;8.77;;;6.13;;
46000;SDS011;72226;48.272;11.180;2024-03-22T11:26:27;7.30;;;5.38;;
46000;SDS011;72226;48.272;11.180;2024-03-22T11:28:52;10.40;;;6.15;;
46000;SDS011;72226;48.272;11.180;2024-03-22T11:31:18;6.03;;;5.43;;
46000;SDS011;72226;48.272;11.180;2024-03-22T11:33:45;8.02;;;5.35;;
46000;SDS011;72226;48.272;11.180;2024-03-22T11:36:10;9.27;;;6.20;;
46000;SDS011;72226;48.272;11.180;2024-03-22T11:38:36;10.32;;;6.80;;
46000;SDS011;72226;48.272;11.180;2024-03-22T11:41:01;8.52;;;6.18;;
46000;SDS011;72226;48.272;11.180;2024-03-22T11:43:30;7.47;;;5.93;;
46000;SDS011;72226;48.272;11.180;2024-03-22T11:45:55;11.07;;;6.95;;
46000;SDS011;72226;48.272;11.180;2024-03-22T11:48:21;9.30;;;6.43;;
46000;SDS011;72226;48.272;11.180;2024-03-22T11:50:47;9.43;;;5.93;;
46000;SDS011;72226;48.272;11.180;2024-03-22T11:53:12;6.97;;;5.68;;
46000;SDS011;72226;48.272;11.180;2024-03-22T11:55:37;7.78;;;6.43;;
46000;SDS011;72226;48.272;11.180;2024-03-22T11:58:03;5.88;;;5.00;;
46000;SDS011;72226;48.272;11.180;2024-03-22T12:00:28;9.32;;;5.47;;
46000;SDS011;72226;48.272;11.180;2024-03-22T12:02:53;5.97;;;4.50;;
46000;SDS011;72226;48.272;11.180;2024-03-22T12:05:19;6.43;;;5.63;;
46000;SDS011;72226;48.272;11.180;2024-03-22T12:07:45;5.32;;;3.90;;
46000;SDS011;72226;48.272;11.180;2024-03-22T12:10:10;7.43;;;3.65;;
46000;SDS011;72226;48.272;11.180;2024-03-22T12:12:36;6.47;;;3.70;;
46000;SDS011;72226;48.272;11.180;2024-03-22T12:15:02;4.15;;;2.90;;
46000;SDS011;72226;48.272;11.180;2024-03-22T12:17:27;6.43;;;2.80;;
46000;SDS011;72226;48.272;11.180;2024-03-22T12:19:52;3.58;;;3.03;;
46000;SDS011;72226;48.272;11.180;2024-03-22T12:22:18;3.95;;;2.63;;
46000;SDS011;72226;48.272;11.180;2024-03-22T12:24:43;5.57;;;3.45;;
46000;SDS011;72226;48.272;11.180;2024-03-22T12:27:08;7.85;;;3.25;;
46000;SDS011;72226;48.272;11.180;2024-03-22T12:29:34;6.78;;;3.45;;
46000;SDS011;72226;48.272;11.180;2024-03-22T12:31:59;3.80;;;2.85;;
46000;SDS011;72226;48.272;11.180;2024-03-22T12:34:26;6.53;;;3.15;;
46000;SDS011;72226;48.272;11.180;2024-03-22T12:36:52;6.15;;;2.53;;
46000;SDS011;72226;48.272;11.180;2024-03-22T12:39:17;5.15;;;2.47;;
46000;SDS011;72226;48.272;11.180;2024-03-22T12:41:42;2.80;;;2.40;;
46000;SDS011;72226;48.272;11.180;2024-03-22T12:44:07;7.22;;;3.30;;
46000;SDS011;72226;48.272;11.180;2024-03-22T12:46:33;5.30;;;2.67;;
46000;SDS011;72226;48.272;11.180;2024-03-22T12:48:58;2.92;;;2.35;;
46000;SDS011;72226;48.272;11.180;2024-03-22T12:51:23;4.97;;;4.03;;
46000;SDS011;72226;48.272;11.180;2024-03-22T12:53:49;4.10;;;3.30;;
46000;SDS011;72226;48.272;11.180;2024-03-22T12:56:14;5.43;;;3.53;;
46000;SDS011;72226;48.272;11.180;2024-03-22T12:58:39;5.07;;;4.20;;
46000;SDS011;72226;48.272;11.180;2024-03-22T13:01:05;3.92;;;3.30;;
46000;SDS011;72226;48.272;11.180;2024-03-22T13:03:31;4.68;;;2.90;;
46000;SDS011;72226;48.272;11.180;2024-03-22T13:05:57;3.50;;;3.13;;
46000;SDS011;72226;48.272;11.180;2024-03-22T13:08:22;3.45;;;3.13;;
46000;SDS011;72226;48.272;11.180;2024-03-22T13:10:47;5.32;;;3.30;;
46000;SDS011;72226;48.272;11.180;2024-03-22T13:13:13;7.57;;;3.10;;
46000;SDS011;72226;48.272;11.180;2024-03-22T13:15:41;4.18;;;2.80;;
46000;SDS011;72226;48.272;11.180;2024-03-22T13:18:06;3.85;;;3.25;;
46000;SDS011;72226;48.272;11.180;2024-03-22T13:20:32;4.00;;;3.35;;
46000;SDS011;72226;48.272;11.180;2024-03-22T13:22:57;5.13;;;2.47;;
46000;SDS011;72226;48.272;11.180;2024-03-22T13:25:22;5.50;;;3.35;;
46000;SDS011;72226;48.272;11.180;2024-03-22T13:27:48;6.72;;;2.67;;
46000;SDS011;72226;48.272;11.180;2024-03-22T13:30:13;5.50;;;2.47;;
46000;SDS011;72226;48.272;11.180;2024-03-22T13:32:39;4.50;;;2.95;;
46000;SDS011;72226;48.272;11.180;2024-03-22T13:35:05;4.70;;;3.15;;
46000;SDS011;72226;48.272;11.180;2024-03-22T13:37:30;3.38;;;2.70;;
46000;SDS011;72226;48.272;11.180;2024-03-22T13:39:55;5.60;;;2.70;;
46000;SDS011;72226;48.272;11.180;2024-03-22T13:42:21;4.93;;;2.58;;
46000;SDS011;72226;48.272;11.180;2024-03-22T13:44:46;2.60;;;2.05;;
46000;SDS011;72226;48.272;11.180;2024-03-22T13:47:11;2.70;;;2.00;;
46000;SDS011;72226;48.272;11.180;2024-03-22T13:49:37;3.10;;;2.75;;
46000;SDS011;72226;48.272;11.180;2024-03-22T13:52:06;9.85;;;3.42;;
46000;SDS011;72226;48.272;11.180;2024-03-22T13:54:31;5.47;;;2.80;;
46000;SDS011;72226;48.272;11.180;2024-03-22T13:56:56;3.13;;;2.78;;
46000;SDS011;72226;48.272;11.180;2024-03-22T13:59:21;5.85;;;2.42;;
46000;SDS011;72226;48.272;11.180;2024-03-22T14:01:47;4.00;;;2.57;;
46000;SDS011;72226;48.272;11.180;2024-03-22T14:04:12;2.83;;;2.35;;
46000;SDS011;72226;48.272;11.180;2024-03-22T14:06:38;3.70;;;2.83;;
46000;SDS011;72226;48.272;11.180;2024-03-22T14:09:03;4.05;;;2.92;;